createdAt,value
2022-08-29T00:01:40.609Z,51.33
2022-08-29T00:04:10.167Z,51.57
2022-08-29T00:06:38.353Z,51.34
2022-08-29T00:09:06.380Z,51.01
2022-08-29T00:11:34.458Z,51.15
2022-08-29T00:14:02.480Z,51.25
2022-08-29T00:16:30.581Z,51.47
2022-08-29T00:18:58.638Z,51.35
2022-08-29T00:21:28.011Z,51.05
2022-08-29T00:23:56.062Z,51.43
2022-08-29T00:26:24.549Z,51.55
2022-08-29T00:28:54.648Z,51.40
2022-08-29T00:31:22.683Z,51.40
2022-08-29T00:33:51.261Z,51.42
2022-08-29T00:36:19.268Z,50.82
2022-08-29T00:38:51.928Z,51.00
2022-08-29T00:41:23.059Z,51.02
2022-08-29T00:43:51.163Z,50.68
2022-08-29T00:46:38.837Z,51.07
2022-08-29T00:49:09.923Z,50.57
2022-08-29T00:51:37.956Z,51.03
2022-08-29T00:54:09.515Z,51.11
2022-08-29T00:56:37.709Z,50.88
2022-08-29T00:59:08.796Z,50.99
2022-08-29T01:01:38.097Z,51.17
2022-08-29T01:04:06.203Z,51.09
2022-08-29T01:06:37.930Z,51.33
2022-08-29T01:09:07.598Z,51.50
2022-08-29T01:11:52.764Z,51.37
2022-08-29T01:14:22.929Z,51.48
2022-08-29T01:16:51.277Z,51.58
2022-08-29T01:19:23.341Z,51.59
2022-08-29T01:21:57.228Z,51.78
2022-08-29T01:24:32.558Z,51.64
2022-08-29T01:27:00.667Z,51.73
2022-08-29T01:29:28.911Z,51.94
2022-08-29T01:31:58.237Z,51.99
2022-08-29T01:34:26.689Z,51.91
2022-08-29T01:36:55.596Z,51.83
2022-08-29T01:39:26.493Z,51.77
2022-08-29T01:41:57.018Z,51.84
2022-08-29T01:44:26.399Z,52.03
2022-08-29T01:46:59.130Z,52.13
2022-08-29T01:49:31.265Z,51.82
2022-08-29T01:51:59.281Z,51.96
2022-08-29T01:54:27.401Z,52.00
2022-08-29T01:56:56.824Z,51.75
2022-08-29T01:59:27.437Z,51.57
2022-08-29T02:01:58.232Z,51.97
2022-08-29T02:04:26.285Z,51.91
2022-08-29T02:06:56.253Z,51.83
2022-08-29T02:09:24.973Z,51.73
2022-08-29T02:11:54.677Z,51.86
2022-08-29T02:14:24.655Z,51.52
2022-08-29T02:16:52.726Z,51.84
2022-08-29T02:19:20.895Z,51.74
2022-08-29T02:21:52.288Z,51.73
2022-08-29T02:24:27.620Z,51.84
2022-08-29T02:26:56.048Z,51.81
2022-08-29T02:29:26.288Z,51.80
2022-08-29T02:32:05.388Z,51.61
2022-08-29T02:34:34.907Z,51.90
2022-08-29T02:37:03.487Z,51.93
2022-08-29T02:39:31.879Z,51.74
2022-08-29T02:42:00.122Z,51.95
2022-08-29T02:44:29.623Z,52.00
2022-08-29T02:46:57.798Z,51.97
2022-08-29T02:49:25.917Z,52.03
2022-08-29T02:51:53.964Z,52.31
2022-08-29T02:54:22.012Z,52.36
2022-08-29T02:56:50.083Z,52.19
2022-08-29T02:59:18.078Z,52.21
2022-08-29T03:01:47.570Z,52.43
2022-08-29T03:04:15.604Z,52.33
2022-08-29T03:06:45.115Z,52.27
2022-08-29T03:09:13.182Z,52.36
2022-08-29T03:11:41.219Z,52.33
2022-08-29T03:14:09.227Z,52.47
2022-08-29T03:16:37.642Z,52.35
2022-08-29T03:19:07.021Z,52.26
2022-08-29T03:21:35.038Z,52.19
2022-08-29T03:24:03.416Z,52.13
2022-08-29T03:26:31.416Z,52.46
2022-08-29T03:28:59.426Z,52.59
2022-08-29T03:31:27.511Z,52.29
2022-08-29T03:33:56.763Z,52.53
2022-08-29T03:36:27.333Z,52.67
2022-08-29T03:38:55.812Z,52.47
2022-08-29T03:41:24.243Z,52.69
2022-08-29T03:43:52.323Z,52.45
2022-08-29T03:46:20.371Z,52.66
2022-08-29T03:48:49.452Z,52.72
2022-08-29T03:51:17.484Z,52.69
2022-08-29T03:53:46.876Z,52.63
2022-08-29T03:56:18.854Z,52.81
2022-08-29T03:58:52.508Z,52.58
2022-08-29T04:01:22.567Z,52.62
2022-08-29T04:03:50.957Z,52.35
2022-08-29T04:06:19.297Z,52.32
2022-08-29T04:08:48.718Z,52.14
2022-08-29T04:11:19.661Z,52.12
2022-08-29T04:13:47.714Z,52.24
2022-08-29T04:16:17.213Z,51.92
2022-08-29T04:18:47.989Z,52.04
2022-08-29T04:21:16.539Z,51.78
2022-08-29T04:23:45.893Z,51.98
2022-08-29T04:26:35.926Z,51.84
2022-08-29T04:29:04.957Z,51.65
2022-08-29T04:31:33.072Z,51.82
2022-08-29T04:34:01.293Z,51.31
2022-08-29T04:36:29.513Z,51.40
2022-08-29T04:38:57.911Z,51.03
2022-08-29T04:41:27.298Z,51.01
2022-08-29T04:43:55.365Z,50.59
2022-08-29T04:46:24.869Z,50.53
2022-08-29T04:48:53.436Z,50.66
2022-08-29T04:51:21.612Z,50.32
2022-08-29T04:53:50.847Z,50.04
2022-08-29T04:56:18.864Z,49.96
2022-08-29T04:58:48.400Z,49.79
2022-08-29T05:01:17.489Z,49.75
2022-08-29T05:03:45.676Z,49.46
2022-08-29T05:06:14.522Z,49.42
2022-08-29T05:08:43.308Z,49.31
2022-08-29T05:11:12.311Z,49.12
2022-08-29T05:13:42.555Z,49.13
2022-08-29T05:16:13.589Z,48.94
2022-08-29T05:18:44.200Z,49.07
2022-08-29T05:21:12.589Z,48.83
2022-08-29T05:23:40.841Z,48.84
2022-08-29T05:26:08.884Z,48.78
2022-08-29T05:28:37.796Z,48.60
2022-08-29T05:31:05.849Z,48.67
2022-08-29T05:33:35.350Z,48.67
2022-08-29T05:36:04.008Z,48.54
2022-08-29T05:38:32.006Z,48.21
2022-08-29T05:41:00.116Z,48.64
2022-08-29T05:43:28.228Z,48.58
2022-08-29T05:46:02.122Z,48.57
2022-08-29T05:48:31.010Z,48.52
2022-08-29T05:51:00.514Z,48.38
2022-08-29T05:53:28.658Z,48.59
2022-08-29T05:55:56.758Z,48.31
2022-08-29T05:58:26.531Z,48.58
2022-08-29T06:00:54.633Z,48.51
2022-08-29T06:03:22.961Z,48.37
2022-08-29T06:05:51.684Z,48.40
2022-08-29T06:08:21.230Z,48.37
2022-08-29T06:10:49.369Z,48.22
2022-08-29T06:13:17.423Z,48.18
2022-08-29T06:15:48.111Z,48.23
2022-08-29T06:18:16.605Z,48.25
2022-08-29T06:20:44.776Z,48.20
2022-08-29T06:23:12.817Z,48.22
2022-08-29T06:25:42.223Z,48.11
2022-08-29T06:28:10.292Z,48.12
2022-08-29T06:30:38.609Z,48.14
2022-08-29T06:33:06.655Z,48.07
2022-08-29T06:35:34.945Z,47.93
2022-08-29T06:38:02.959Z,48.10
2022-08-29T06:40:31.071Z,48.09
2022-08-29T06:43:00.508Z,47.71
2022-08-29T06:45:28.656Z,47.63
2022-08-29T06:47:56.710Z,47.68
2022-08-29T06:50:24.799Z,47.46
2022-08-29T06:52:52.944Z,47.71
2022-08-29T06:55:24.141Z,47.50
2022-08-29T06:57:52.593Z,47.46
2022-08-29T07:00:22.945Z,47.34
2022-08-29T07:02:53.681Z,47.16
2022-08-29T07:05:22.339Z,47.21
2022-08-29T07:07:50.492Z,47.09
2022-08-29T07:10:22.361Z,46.85
2022-08-29T07:12:52.321Z,46.56
2022-08-29T07:15:22.604Z,46.41
2022-08-29T07:17:55.457Z,46.91
2022-08-29T07:20:25.946Z,46.79
2022-08-29T07:22:55.663Z,46.49
2022-08-29T07:25:24.895Z,46.53
2022-08-29T07:27:53.586Z,46.33
2022-08-29T07:30:24.216Z,46.25
2022-08-29T07:32:53.689Z,46.02
2022-08-29T07:35:30.109Z,46.12
2022-08-29T07:38:01.153Z,45.83
2022-08-29T07:40:29.310Z,45.67
2022-08-29T07:42:57.446Z,45.73
2022-08-29T07:45:28.315Z,45.23
2022-08-29T07:47:58.779Z,45.07
2022-08-29T07:50:27.528Z,44.72
2022-08-29T07:52:57.083Z,44.61
2022-08-29T07:55:25.204Z,44.32
2022-08-29T07:57:53.339Z,44.26
2022-08-29T08:00:21.540Z,43.89
2022-08-29T08:02:49.687Z,43.79
2022-08-29T08:05:19.280Z,43.34
2022-08-29T08:07:49.547Z,42.62
2022-08-29T08:10:23.561Z,42.66
2022-08-29T08:12:51.772Z,42.07
2022-08-29T08:15:21.942Z,41.41
2022-08-29T08:17:50.013Z,40.92
2022-08-29T08:20:19.428Z,40.64
2022-08-29T08:22:47.499Z,40.80
2022-08-29T08:25:16.572Z,40.73
2022-08-29T08:27:45.350Z,40.43
2022-08-29T08:30:14.731Z,40.36
2022-08-29T08:32:46.410Z,39.86
2022-08-29T08:35:16.321Z,39.76
2022-08-29T08:37:46.091Z,39.64
2022-08-29T08:40:19.790Z,39.73
2022-08-29T08:42:50.347Z,39.50
2022-08-29T08:45:18.637Z,38.96
2022-08-29T08:47:49.925Z,39.09
2022-08-29T08:50:21.222Z,38.66
2022-08-29T08:53:04.357Z,38.44
2022-08-29T08:55:38.056Z,38.63
2022-08-29T08:58:11.413Z,38.47
2022-08-29T09:00:44.282Z,37.80
2022-08-29T09:03:21.800Z,37.94
2022-08-29T09:05:59.941Z,37.65
2022-08-29T09:08:34.235Z,37.89
2022-08-29T09:11:04.286Z,37.61
2022-08-29T09:13:38.626Z,37.60
2022-08-29T09:16:09.432Z,37.40
2022-08-29T09:18:39.486Z,36.95
2022-08-29T09:21:39.999Z,37.57
2022-08-29T09:24:11.478Z,37.10
2022-08-29T09:26:40.991Z,37.36
2022-08-29T09:29:09.956Z,37.18
2022-08-29T09:31:38.294Z,36.40
2022-08-29T09:34:07.692Z,35.93
2022-08-29T09:36:42.380Z,35.74
2022-08-29T09:39:14.872Z,36.17
2022-08-29T09:41:43.198Z,35.97
2022-08-29T09:44:14.253Z,36.10
2022-08-29T09:46:42.830Z,35.95
2022-08-29T09:49:13.846Z,35.14
2022-08-29T09:51:42.788Z,34.79
2022-08-29T09:54:28.936Z,34.84
2022-08-29T09:57:00.049Z,35.12
2022-08-29T09:59:29.416Z,34.16
2022-08-29T10:02:25.517Z,34.93
2022-08-29T10:04:55.097Z,34.19
2022-08-29T10:07:24.635Z,34.54
2022-08-29T10:10:00.378Z,34.33
2022-08-29T10:12:36.818Z,33.90
2022-08-29T10:15:07.358Z,33.44
2022-08-29T10:17:56.579Z,33.15
2022-08-29T10:20:25.263Z,32.88
2022-08-29T10:22:55.965Z,32.87
2022-08-29T10:25:31.903Z,33.10
2022-08-29T10:28:05.132Z,33.00
2022-08-29T10:30:36.060Z,32.53
2022-08-29T10:33:12.240Z,32.24
2022-08-29T10:35:42.959Z,31.58
2022-08-29T10:38:16.479Z,31.50
2022-08-29T10:40:47.554Z,31.26
2022-08-29T10:43:40.249Z,31.40
2022-08-29T10:46:15.753Z,31.48
2022-08-29T10:48:46.919Z,31.04
2022-08-29T10:51:20.194Z,31.17
2022-08-29T10:53:48.912Z,31.48
2022-08-29T10:56:22.837Z,31.37
2022-08-29T10:59:08.629Z,31.17
2022-08-29T11:01:38.960Z,31.35
2022-08-29T11:04:17.396Z,30.96
2022-08-29T11:06:50.587Z,31.13
2022-08-29T11:09:23.244Z,31.08
2022-08-29T11:12:01.560Z,30.93
2022-08-29T11:14:33.620Z,31.27
2022-08-29T11:17:06.000Z,31.26
2022-08-29T11:19:38.776Z,31.77
2022-08-29T11:22:12.820Z,31.93
2022-08-29T11:24:46.439Z,31.83
2022-08-29T11:27:28.348Z,32.03
2022-08-29T11:30:00.537Z,32.15
2022-08-29T11:32:36.140Z,32.62
2022-08-29T11:35:11.262Z,32.54
2022-08-29T11:38:05.412Z,32.82
2022-08-29T11:40:47.854Z,31.56
2022-08-29T11:43:21.184Z,31.04
2022-08-29T11:45:56.363Z,31.65
2022-08-29T11:48:32.337Z,30.61
2022-08-29T11:51:02.988Z,30.61
2022-08-29T11:53:35.172Z,30.20
2022-08-29T11:56:22.028Z,30.60
2022-08-29T11:58:54.188Z,30.87
2022-08-29T12:01:57.530Z,29.43
2022-08-29T12:04:55.092Z,29.64
2022-08-29T12:07:35.017Z,30.42
2022-08-29T12:10:05.499Z,30.36
2022-08-29T12:12:55.156Z,30.76
2022-08-29T12:15:59.536Z,31.07
2022-08-29T12:18:44.597Z,29.93
2022-08-29T12:21:35.720Z,29.32
2022-08-29T12:24:04.098Z,28.28
2022-08-29T12:26:42.967Z,27.70
2022-08-29T12:29:18.171Z,28.25
2022-08-29T12:32:18.786Z,28.28
2022-08-29T12:35:06.657Z,29.09
2022-08-29T12:37:43.876Z,28.54
2022-08-29T12:40:45.897Z,27.87
2022-08-29T12:43:27.003Z,28.26
2022-08-29T12:45:55.377Z,27.95
2022-08-29T12:48:30.488Z,27.74
2022-08-29T12:50:58.615Z,27.22
2022-08-29T12:53:27.854Z,27.16
2022-08-29T12:55:56.645Z,26.93
2022-08-29T12:58:39.366Z,26.03
2022-08-29T13:01:09.857Z,25.39
2022-08-29T13:03:39.366Z,26.27
2022-08-29T13:06:12.459Z,26.34
2022-08-29T13:08:41.255Z,26.26
2022-08-29T13:11:10.912Z,25.91
2022-08-29T13:13:39.095Z,25.60
2022-08-29T13:16:09.237Z,25.36
2022-08-29T13:18:59.865Z,25.11
2022-08-29T13:21:27.912Z,25.42
2022-08-29T13:24:01.299Z,25.37
2022-08-29T13:26:32.348Z,25.14
2022-08-29T13:29:02.844Z,25.01
2022-08-29T13:31:34.549Z,25.18
2022-08-29T13:34:10.371Z,23.75
2022-08-29T13:36:40.725Z,23.94
2022-08-29T13:39:31.640Z,23.52
2022-08-29T13:42:23.579Z,24.01
2022-08-29T13:45:16.364Z,23.80
2022-08-29T13:47:59.069Z,23.33
2022-08-29T13:50:29.153Z,22.56
2022-08-29T13:52:57.638Z,22.04
2022-08-29T13:55:25.825Z,21.46
2022-08-29T13:57:54.720Z,21.20
2022-08-29T14:00:31.932Z,21.65
2022-08-29T14:03:02.012Z,21.38
2022-08-29T14:05:31.695Z,21.64
2022-08-29T14:07:59.739Z,21.44
2022-08-29T14:10:27.771Z,21.35
2022-08-29T14:12:55.855Z,21.62
2022-08-29T14:15:23.853Z,21.91
2022-08-29T14:17:51.925Z,21.41
2022-08-29T14:20:20.002Z,21.30
2022-08-29T14:22:49.819Z,20.83
2022-08-29T14:25:21.294Z,21.08
2022-08-29T14:27:49.515Z,20.38
2022-08-29T14:30:20.009Z,19.84
2022-08-29T14:32:48.046Z,19.53
2022-08-29T14:35:26.423Z,19.55
2022-08-29T14:38:01.337Z,19.70
2022-08-29T14:40:29.643Z,20.31
2022-08-29T14:42:58.636Z,19.92
2022-08-29T14:45:27.026Z,19.63
2022-08-29T14:47:57.643Z,19.52
2022-08-29T14:50:25.822Z,19.17
2022-08-29T14:52:56.611Z,19.27
2022-08-29T14:55:27.642Z,18.89
2022-08-29T14:57:55.787Z,18.64
2022-08-29T15:00:25.130Z,18.27
2022-08-29T15:02:53.378Z,19.04
2022-08-29T15:05:23.329Z,18.60
2022-08-29T15:07:51.461Z,18.17
2022-08-29T15:10:21.194Z,18.29
2022-08-29T15:12:50.642Z,18.51
2022-08-29T15:15:19.442Z,18.45
2022-08-29T15:17:47.516Z,17.62
2022-08-29T15:20:35.333Z,18.07
2022-08-29T15:23:03.755Z,17.38
2022-08-29T15:25:33.197Z,18.00
2022-08-29T15:28:02.731Z,17.54
2022-08-29T15:30:30.775Z,17.66
2022-08-29T15:32:58.863Z,18.03
2022-08-29T15:35:27.042Z,18.26
2022-08-29T15:37:55.418Z,18.18
2022-08-29T15:40:23.619Z,17.98
2022-08-29T15:42:51.665Z,17.82
2022-08-29T15:45:22.424Z,17.79
2022-08-29T15:47:53.889Z,18.17
2022-08-29T15:50:24.013Z,18.33
2022-08-29T15:52:52.784Z,18.55
2022-08-29T15:55:21.111Z,18.82
2022-08-29T15:57:52.808Z,18.88
2022-08-29T16:00:30.037Z,18.87
2022-08-29T16:03:03.056Z,18.71
2022-08-29T16:05:31.829Z,19.19
2022-08-29T16:07:59.938Z,19.48
2022-08-29T16:10:28.092Z,18.64
2022-08-29T16:12:56.426Z,19.03
2022-08-29T16:15:27.724Z,18.64
2022-08-29T16:17:55.956Z,19.29
2022-08-29T16:20:24.082Z,18.40
2022-08-29T16:22:54.778Z,17.98
2022-08-29T16:25:23.468Z,18.14
2022-08-29T16:27:51.544Z,18.34
2022-08-29T16:30:20.983Z,18.57
2022-08-29T16:32:54.762Z,18.12
2022-08-29T16:35:25.442Z,17.78
2022-08-29T16:38:02.408Z,18.24
2022-08-29T16:40:32.227Z,18.21
2022-08-29T16:43:00.386Z,17.68
2022-08-29T16:45:28.470Z,18.04
2022-08-29T16:47:57.921Z,18.24
2022-08-29T16:50:26.718Z,18.84
2022-08-29T16:52:54.787Z,17.98
2022-08-29T16:55:23.324Z,18.24
2022-08-29T16:58:05.318Z,18.10
2022-08-29T17:00:33.852Z,18.31
2022-08-29T17:03:03.251Z,18.77
2022-08-29T17:05:31.650Z,18.92
2022-08-29T17:07:58.517Z,18.77
2022-08-29T17:10:26.509Z,18.93
2022-08-29T17:12:53.687Z,18.99
2022-08-29T17:15:20.825Z,19.37
2022-08-29T17:17:48.952Z,20.07
2022-08-29T17:20:21.082Z,19.28
2022-08-29T17:22:50.085Z,19.45
2022-08-29T17:25:18.097Z,19.80
2022-08-29T17:28:00.914Z,19.19
2022-08-29T17:30:37.475Z,19.97
2022-08-29T17:33:05.720Z,19.83
2022-08-29T17:35:35.161Z,20.34
2022-08-29T17:38:05.899Z,20.25
2022-08-29T17:40:36.987Z,20.55
2022-08-29T17:43:07.420Z,20.46
2022-08-29T17:45:38.684Z,20.63
2022-08-29T17:48:06.986Z,20.78
2022-08-29T17:50:37.579Z,20.50
2022-08-29T17:53:13.551Z,21.17
2022-08-29T17:55:41.702Z,21.63
2022-08-29T17:58:09.990Z,21.98
2022-08-29T18:00:38.058Z,22.29
2022-08-29T18:03:06.110Z,22.70
2022-08-29T18:05:34.205Z,23.04
2022-08-29T18:08:03.861Z,23.45
2022-08-29T18:10:31.899Z,23.39
2022-08-29T18:12:59.982Z,23.57
2022-08-29T18:15:28.401Z,23.77
2022-08-29T18:17:56.477Z,23.82
2022-08-29T18:20:24.631Z,24.66
2022-08-29T18:22:52.625Z,24.54
2022-08-29T18:25:25.144Z,25.09
2022-08-29T18:27:53.168Z,25.58
2022-08-29T18:30:21.533Z,26.29
2022-08-29T18:32:49.601Z,27.13
2022-08-29T18:35:18.048Z,27.58
2022-08-29T18:37:49.360Z,28.08
2022-08-29T18:40:17.510Z,28.59
2022-08-29T18:42:48.238Z,29.31
2022-08-29T18:45:18.827Z,30.00
2022-08-29T18:47:46.899Z,30.36
2022-08-29T18:50:33.458Z,30.84
2022-08-29T18:53:01.852Z,31.23
2022-08-29T18:55:29.865Z,31.20
2022-08-29T18:57:59.335Z,31.32
2022-08-29T19:00:27.605Z,31.89
2022-08-29T19:02:56.400Z,31.94
2022-08-29T19:05:25.441Z,32.22
2022-08-29T19:07:53.724Z,32.11
2022-08-29T19:10:22.249Z,32.48
2022-08-29T19:12:50.449Z,32.28
2022-08-29T19:15:20.385Z,32.47
2022-08-29T19:17:48.513Z,32.86
2022-08-29T19:20:31.184Z,33.37
2022-08-29T19:22:59.423Z,33.33
2022-08-29T19:25:29.188Z,33.65
2022-08-29T19:27:57.178Z,34.05
2022-08-29T19:30:26.987Z,33.77
2022-08-29T19:32:55.167Z,33.88
2022-08-29T19:35:23.504Z,34.20
2022-08-29T19:37:53.177Z,34.10
2022-08-29T19:40:21.701Z,34.35
2022-08-29T19:42:49.758Z,34.35
2022-08-29T19:45:18.380Z,34.46
2022-08-29T19:47:49.440Z,34.73
2022-08-29T19:50:18.885Z,34.56
2022-08-29T19:52:46.934Z,34.68
2022-08-29T19:55:17.754Z,34.57
2022-08-29T19:57:46.473Z,34.77
2022-08-29T20:00:16.839Z,35.17
2022-08-29T20:02:45.023Z,34.90
2022-08-29T20:05:15.554Z,35.01
2022-08-29T20:07:44.737Z,35.13
2022-08-29T20:10:16.671Z,35.61
2022-08-29T20:12:49.487Z,35.71
2022-08-29T20:15:17.708Z,36.00
2022-08-29T20:17:46.691Z,36.19
2022-08-29T20:20:17.655Z,35.95
2022-08-29T20:22:46.679Z,36.13
2022-08-29T20:25:18.244Z,36.36
2022-08-29T20:27:46.619Z,36.08
2022-08-29T20:30:16.110Z,36.43
2022-08-29T20:32:46.545Z,36.48
2022-08-29T20:35:38.668Z,36.64
2022-08-29T20:38:05.784Z,36.67
2022-08-29T20:40:37.468Z,36.68
2022-08-29T20:43:06.333Z,37.01
2022-08-29T20:45:34.897Z,37.11
2022-08-29T20:48:03.092Z,37.13
2022-08-29T20:50:32.484Z,37.24
2022-08-29T20:53:00.581Z,37.38
2022-08-29T20:55:29.059Z,37.22
2022-08-29T20:57:58.062Z,37.54
2022-08-29T21:00:26.157Z,37.62
2022-08-29T21:03:11.388Z,37.63
2022-08-29T21:05:43.532Z,37.90
2022-08-29T21:08:12.725Z,38.09
2022-08-29T21:10:40.937Z,38.21
2022-08-29T21:13:09.347Z,38.32
2022-08-29T21:15:37.498Z,38.38
2022-08-29T21:18:06.158Z,38.26
2022-08-29T21:20:36.544Z,38.52
2022-08-29T21:23:10.894Z,38.70
2022-08-29T21:25:41.341Z,38.86
2022-08-29T21:28:09.803Z,38.84
2022-08-29T21:30:41.378Z,38.95
2022-08-29T21:33:13.016Z,38.98
2022-08-29T21:35:41.966Z,39.15
2022-08-29T21:38:11.664Z,39.19
2022-08-29T21:40:50.052Z,39.41
2022-08-29T21:43:19.193Z,39.40
2022-08-29T21:45:48.524Z,39.55
2022-08-29T21:48:16.557Z,39.67
2022-08-29T21:50:47.000Z,39.86
2022-08-29T21:53:18.471Z,39.66
2022-08-29T21:55:46.515Z,39.94
2022-08-29T21:58:15.149Z,40.12
2022-08-29T22:00:43.301Z,40.13
2022-08-29T22:03:12.356Z,40.12
2022-08-29T22:05:43.666Z,40.40
2022-08-29T22:08:13.838Z,40.44
2022-08-29T22:10:43.643Z,40.42
2022-08-29T22:13:14.339Z,40.72
2022-08-29T22:16:00.144Z,40.69
2022-08-29T22:18:28.996Z,41.02
2022-08-29T22:21:00.419Z,40.85
2022-08-29T22:23:29.656Z,41.20
2022-08-29T22:25:59.072Z,41.09
2022-08-29T22:28:27.237Z,41.16
2022-08-29T22:30:55.258Z,41.39
2022-08-29T22:33:23.299Z,41.36
2022-08-29T22:35:52.933Z,41.52
2022-08-29T22:38:20.938Z,41.63
2022-08-29T22:40:48.972Z,41.67
2022-08-29T22:43:18.504Z,41.95
2022-08-29T22:45:46.674Z,42.06
2022-08-29T22:48:21.129Z,42.11
2022-08-29T22:50:56.139Z,42.05
2022-08-29T22:53:26.408Z,42.26
2022-08-29T22:55:54.466Z,42.21
2022-08-29T22:58:23.934Z,42.21
2022-08-29T23:00:51.932Z,42.64
2022-08-29T23:03:20.264Z,42.48
2022-08-29T23:05:48.418Z,42.98
2022-08-29T23:08:17.780Z,42.81
2022-08-29T23:10:49.130Z,43.32
2022-08-29T23:13:17.851Z,43.06
2022-08-29T23:15:47.356Z,43.24
2022-08-29T23:18:15.461Z,43.49
2022-08-29T23:20:43.482Z,43.48
2022-08-29T23:23:15.152Z,43.35
2022-08-29T23:25:43.372Z,43.41
2022-08-29T23:28:11.379Z,43.27
2022-08-29T23:30:39.412Z,43.43
2022-08-29T23:33:11.354Z,43.73
2022-08-29T23:35:39.470Z,43.57
2022-08-29T23:38:07.922Z,43.50
2022-08-29T23:40:36.689Z,43.44
2022-08-29T23:43:07.638Z,43.59
2022-08-29T23:45:35.641Z,43.63
2022-08-29T23:48:04.024Z,43.52
2022-08-29T23:50:33.425Z,43.61
2022-08-29T23:53:10.157Z,43.79
2022-08-29T23:55:38.255Z,43.87
2022-08-29T23:58:07.240Z,43.85
